createdAt,value
2019-06-01T00:00:25.000Z,16.84
2019-06-01T00:01:25.024Z,16.83
2019-06-01T00:02:25.047Z,16.95
2019-06-01T00:03:25.063Z,16.87
2019-06-01T00:04:25.095Z,16.83
2019-06-01T00:05:25.106Z,16.92
2019-06-01T00:06:25.132Z,16.87
2019-06-01T00:07:25.151Z,16.91
2019-06-01T00:08:25.169Z,16.87
2019-06-01T00:09:25.194Z,16.86
2019-06-01T00:10:25.214Z,16.86
2019-06-01T00:11:25.238Z,16.86
2019-06-01T00:12:25.257Z,16.82
2019-06-01T00:13:25.276Z,16.83
2019-06-01T00:14:25.298Z,16.74
2019-06-01T00:15:25.309Z,16.66
2019-06-01T00:16:25.325Z,16.77
2019-06-01T00:17:25.348Z,16.76
2019-06-01T00:18:25.370Z,16.76
2019-06-01T00:19:25.395Z,16.79
2019-06-01T00:20:25.412Z,16.74
2019-06-01T00:21:25.431Z,16.72
2019-06-01T00:22:25.451Z,16.72
2019-06-01T00:23:25.476Z,16.65
2019-06-01T00:24:25.505Z,16.72
2019-06-01T00:25:25.515Z,16.66
2019-06-01T00:26:25.543Z,16.62
2019-06-01T00:27:25.560Z,16.66
2019-06-01T00:28:25.580Z,16.61
2019-06-01T00:29:25.600Z,16.64
2019-06-01T00:30:27.311Z,16.59
2019-06-01T00:31:25.644Z,16.62
2019-06-01T00:32:25.666Z,16.55
2019-06-01T00:33:25.687Z,16.54
2019-06-01T00:34:25.708Z,16.51
2019-06-01T00:35:25.724Z,16.57
2019-06-01T00:36:25.748Z,16.40
2019-06-01T00:37:25.772Z,16.43
2019-06-01T00:38:25.790Z,16.44
2019-06-01T00:39:25.816Z,16.44
2019-06-01T00:40:25.832Z,16.40
2019-06-01T00:41:25.854Z,16.36
2019-06-01T00:42:25.875Z,16.41
2019-06-01T00:43:25.896Z,16.40
2019-06-01T00:44:25.916Z,16.34
2019-06-01T00:45:25.938Z,16.29
2019-06-01T00:46:25.968Z,16.34
2019-06-01T00:47:25.983Z,16.34
2019-06-01T00:48:26.010Z,16.28
2019-06-01T00:49:26.023Z,16.28
2019-06-01T00:50:26.045Z,16.39
2019-06-01T00:51:26.063Z,16.32
2019-06-01T00:52:26.093Z,16.32
2019-06-01T00:53:26.125Z,16.29
2019-06-01T00:54:26.143Z,16.25
2019-06-01T00:55:26.160Z,16.28
2019-06-01T00:56:26.182Z,16.26
2019-06-01T00:57:26.203Z,16.24
2019-06-01T00:58:26.225Z,16.28
2019-06-01T00:59:26.255Z,16.22
2019-06-01T01:00:40.691Z,16.16
2019-06-01T01:01:26.327Z,16.17
2019-06-01T01:02:26.331Z,16.26
2019-06-01T01:03:26.384Z,16.18
2019-06-01T01:04:26.406Z,16.09
2019-06-01T01:05:26.391Z,16.09
2019-06-01T01:06:26.391Z,16.12
2019-06-01T01:07:26.411Z,16.17
2019-06-01T01:08:26.431Z,16.17
2019-06-01T01:09:26.454Z,16.09
2019-06-01T01:10:26.474Z,16.17
2019-06-01T01:11:26.496Z,16.06
2019-06-01T01:12:26.514Z,16.06
2019-06-01T01:13:26.539Z,16.05
2019-06-01T01:14:26.558Z,15.98
2019-06-01T01:15:26.578Z,15.96
2019-06-01T01:16:26.599Z,15.99
2019-06-01T01:17:26.619Z,16.00
2019-06-01T01:18:26.646Z,16.03
2019-06-01T01:19:26.663Z,15.98
2019-06-01T01:20:26.686Z,15.99
2019-06-01T01:21:26.705Z,15.94
2019-06-01T01:22:26.724Z,15.98
2019-06-01T01:23:26.747Z,16.02
2019-06-01T01:24:26.764Z,15.99
2019-06-01T01:25:26.792Z,15.92
2019-06-01T01:26:26.813Z,15.92
2019-06-01T01:27:26.827Z,15.90
2019-06-01T01:28:26.850Z,15.90
2019-06-01T01:29:26.877Z,15.96
2019-06-01T01:30:26.892Z,15.84
2019-06-01T01:31:26.913Z,15.90
2019-06-01T01:32:26.941Z,15.83
2019-06-01T01:33:26.957Z,15.91
2019-06-01T01:34:26.975Z,15.90
2019-06-01T01:35:26.995Z,15.88
2019-06-01T01:36:27.015Z,15.73
2019-06-01T01:37:27.035Z,15.87
2019-06-01T01:38:27.058Z,15.81
2019-06-01T01:39:27.077Z,15.80
2019-06-01T01:40:27.106Z,15.75
2019-06-01T01:41:27.117Z,15.73
2019-06-01T01:42:27.147Z,15.80
2019-06-01T01:43:27.158Z,15.80
2019-06-01T01:44:27.178Z,15.66
2019-06-01T01:45:27.201Z,15.73
2019-06-01T01:46:27.221Z,15.67
2019-06-01T01:47:27.243Z,15.70
2019-06-01T01:48:27.260Z,15.66
2019-06-01T01:49:27.284Z,15.67
2019-06-01T01:50:27.305Z,15.70
2019-06-01T01:51:27.324Z,15.67
2019-06-01T01:52:27.344Z,15.67
2019-06-01T01:53:27.368Z,15.70
2019-06-01T01:54:27.412Z,15.67
2019-06-01T01:55:27.410Z,15.69
2019-06-01T01:56:27.428Z,15.63
2019-06-01T01:57:27.448Z,15.65
2019-06-01T01:58:27.471Z,15.62
2019-06-01T01:59:27.488Z,15.59
2019-06-01T02:00:27.510Z,15.59
2019-06-01T02:01:27.532Z,15.63
2019-06-01T02:02:27.560Z,15.62
2019-06-01T02:03:27.576Z,15.60
2019-06-01T02:04:27.593Z,15.67
2019-06-01T02:05:27.614Z,15.65
2019-06-01T02:06:29.218Z,15.60
2019-06-01T02:07:27.655Z,15.54
2019-06-01T02:08:27.716Z,15.48
2019-06-01T02:09:27.704Z,15.60
2019-06-01T02:10:27.717Z,15.50
2019-06-01T02:11:27.737Z,15.54
2019-06-01T02:12:27.764Z,15.60
2019-06-01T02:13:27.783Z,15.55
2019-06-01T02:14:27.799Z,15.51
2019-06-01T02:15:27.821Z,15.51
2019-06-01T02:16:27.838Z,15.45
2019-06-01T02:17:27.858Z,15.50
2019-06-01T02:18:27.884Z,15.51
2019-06-01T02:19:27.900Z,15.51
2019-06-01T02:20:27.923Z,15.45
2019-06-01T02:21:27.944Z,15.41
2019-06-01T02:22:27.963Z,15.43
2019-06-01T02:23:27.983Z,15.44
2019-06-01T02:24:28.004Z,15.41
2019-06-01T02:25:28.025Z,15.36
2019-06-01T02:26:28.043Z,15.33
2019-06-01T02:27:28.063Z,15.35
2019-06-01T02:28:28.085Z,15.37
2019-06-01T02:29:28.107Z,15.33
2019-06-01T02:30:28.131Z,15.43
2019-06-01T02:31:40.492Z,15.36
2019-06-01T02:32:28.227Z,15.32
2019-06-01T02:33:28.221Z,15.35
2019-06-01T02:34:28.295Z,15.32
2019-06-01T02:35:28.290Z,15.32
2019-06-01T02:36:28.287Z,15.33
2019-06-01T02:37:28.279Z,15.29
2019-06-01T02:38:28.289Z,15.30
2019-06-01T02:39:28.300Z,15.36
2019-06-01T02:40:28.323Z,15.30
2019-06-01T02:41:28.337Z,15.22
2019-06-01T02:42:28.361Z,15.29
2019-06-01T02:43:28.379Z,15.26
2019-06-01T02:44:28.399Z,15.19
2019-06-01T02:45:28.420Z,15.32
2019-06-01T02:46:28.440Z,15.26
2019-06-01T02:47:28.461Z,15.30
2019-06-01T02:48:28.482Z,15.30
2019-06-01T02:49:28.499Z,15.29
2019-06-01T02:50:28.523Z,15.23
2019-06-01T02:51:28.541Z,15.15
2019-06-01T02:52:28.561Z,15.18
2019-06-01T02:53:28.600Z,15.15
2019-06-01T02:54:28.606Z,15.19
2019-06-01T02:55:28.623Z,15.12
2019-06-01T02:56:28.644Z,15.18
2019-06-01T02:57:28.663Z,15.19
2019-06-01T02:58:28.693Z,15.11
2019-06-01T02:59:28.705Z,15.11
2019-06-01T03:00:28.736Z,15.12
2019-06-01T03:01:28.751Z,15.17
2019-06-01T03:02:28.769Z,15.11
2019-06-01T03:03:28.793Z,15.02
2019-06-01T03:04:28.807Z,15.04
2019-06-01T03:05:28.829Z,15.07
2019-06-01T03:06:28.848Z,15.07
2019-06-01T03:07:28.867Z,15.15
2019-06-01T03:08:28.886Z,15.05
2019-06-01T03:09:28.909Z,15.08
2019-06-01T03:10:28.928Z,15.08
2019-06-01T03:11:28.951Z,15.02
2019-06-01T03:12:28.968Z,14.99
2019-06-01T03:13:28.988Z,15.02
2019-06-01T03:14:29.009Z,15.05
2019-06-01T03:15:29.029Z,14.97
2019-06-01T03:16:29.050Z,15.04
2019-06-01T03:17:29.070Z,15.02
2019-06-01T03:18:29.091Z,15.02
2019-06-01T03:19:29.109Z,15.00
2019-06-01T03:20:29.132Z,14.99
2019-06-01T03:21:29.150Z,15.02
2019-06-01T03:22:29.197Z,14.96
2019-06-01T03:23:29.191Z,14.97
2019-06-01T03:24:29.212Z,14.97
2019-06-01T03:25:29.232Z,15.00
2019-06-01T03:26:29.254Z,14.92
2019-06-01T03:27:29.273Z,14.97
2019-06-01T03:28:29.293Z,14.92
2019-06-01T03:29:29.313Z,14.94
2019-06-01T03:30:29.357Z,14.92
2019-06-01T03:31:29.355Z,14.93
2019-06-01T03:32:36.675Z,14.93
2019-06-01T03:33:29.396Z,14.94
2019-06-01T03:34:29.419Z,14.93
2019-06-01T03:35:29.434Z,14.94
2019-06-01T03:36:29.454Z,14.96
2019-06-01T03:37:29.477Z,14.94
2019-06-01T03:38:29.498Z,15.02
2019-06-01T03:39:29.526Z,14.93
2019-06-01T03:40:29.536Z,14.87
2019-06-01T03:41:29.556Z,14.94
2019-06-01T03:42:29.575Z,14.94
2019-06-01T03:43:29.596Z,15.00
2019-06-01T03:44:29.617Z,14.93
2019-06-01T03:45:29.639Z,14.92
2019-06-01T03:46:29.659Z,14.92
2019-06-01T03:47:29.677Z,14.93
2019-06-01T03:48:29.697Z,14.96
2019-06-01T03:49:29.720Z,15.00
2019-06-01T03:50:29.740Z,14.94
2019-06-01T03:51:29.762Z,14.92
2019-06-01T03:52:29.781Z,14.99
2019-06-01T03:53:29.815Z,14.92
2019-06-01T03:54:29.821Z,14.96
2019-06-01T03:55:29.837Z,14.86
2019-06-01T03:56:29.862Z,14.97
2019-06-01T03:57:29.881Z,14.97
2019-06-01T03:58:29.902Z,14.94
2019-06-01T03:59:29.922Z,14.96
2019-06-01T04:00:29.941Z,14.94
2019-06-01T04:01:29.961Z,14.94
2019-06-01T04:02:33.082Z,15.02
2019-06-01T04:03:30.008Z,14.94
2019-06-01T04:04:30.086Z,14.93
2019-06-01T04:05:30.093Z,14.97
2019-06-01T04:06:30.100Z,15.02
2019-06-01T04:07:30.169Z,15.04
2019-06-01T04:08:30.152Z,15.02
2019-06-01T04:09:30.164Z,15.00
2019-06-01T04:10:30.162Z,15.02
2019-06-01T04:11:30.202Z,14.96
2019-06-01T04:12:30.184Z,15.00
2019-06-01T04:13:30.206Z,15.02
2019-06-01T04:14:30.224Z,15.05
2019-06-01T04:15:30.245Z,15.07
2019-06-01T04:16:30.267Z,15.10
2019-06-01T04:17:32.844Z,15.08
2019-06-01T04:18:30.307Z,15.11
2019-06-01T04:19:30.327Z,15.11
2019-06-01T04:20:30.347Z,15.10
2019-06-01T04:21:30.373Z,15.11
2019-06-01T04:22:30.390Z,15.15
2019-06-01T04:23:30.411Z,15.18
2019-06-01T04:24:30.430Z,15.22
2019-06-01T04:25:30.449Z,15.27
2019-06-01T04:26:30.469Z,15.32
2019-06-01T04:27:30.490Z,15.26
2019-06-01T04:28:30.512Z,15.29
2019-06-01T04:29:30.534Z,15.33
2019-06-01T04:30:30.553Z,15.39
2019-06-01T04:31:30.572Z,15.44
2019-06-01T04:32:30.595Z,15.50
2019-06-01T04:33:30.615Z,15.48
2019-06-01T04:34:30.635Z,15.62
2019-06-01T04:35:30.656Z,15.63
2019-06-01T04:36:30.681Z,15.70
2019-06-01T04:37:30.702Z,15.67
2019-06-01T04:38:30.719Z,15.73
2019-06-01T04:39:30.739Z,15.76
2019-06-01T04:40:30.761Z,15.80
2019-06-01T04:41:30.780Z,15.88
2019-06-01T04:42:30.799Z,15.88
2019-06-01T04:43:30.829Z,15.91
2019-06-01T04:44:30.842Z,16.02
2019-06-01T04:45:30.865Z,16.05
2019-06-01T04:46:30.888Z,16.06
2019-06-01T04:47:30.909Z,16.06
2019-06-01T04:48:30.945Z,16.13
2019-06-01T04:49:30.957Z,16.12
2019-06-01T04:50:30.978Z,16.05
2019-06-01T04:51:31.014Z,16.06
2019-06-01T04:52:31.029Z,16.17
2019-06-01T04:53:31.035Z,16.16
2019-06-01T04:54:31.054Z,16.21
2019-06-01T04:55:31.074Z,16.25
2019-06-01T04:56:31.096Z,16.29
2019-06-01T04:57:31.118Z,16.39
2019-06-01T04:58:31.138Z,16.34
2019-06-01T04:59:31.160Z,16.31
2019-06-01T05:00:31.180Z,16.37
2019-06-01T05:01:31.203Z,16.50
2019-06-01T05:02:31.230Z,16.49
2019-06-01T05:03:31.251Z,16.62
2019-06-01T05:04:31.265Z,16.64
2019-06-01T05:05:31.288Z,16.72
2019-06-01T05:06:31.310Z,16.73
2019-06-01T05:07:31.366Z,16.87
2019-06-01T05:08:31.350Z,16.89
2019-06-01T05:09:31.375Z,16.92
2019-06-01T05:10:31.396Z,17.07
2019-06-01T05:11:31.417Z,17.02
2019-06-01T05:12:31.441Z,16.99
2019-06-01T05:13:31.461Z,17.05
2019-06-01T05:14:31.485Z,17.10
2019-06-01T05:15:31.510Z,17.13
2019-06-01T05:16:31.537Z,17.20
2019-06-01T05:17:31.549Z,17.27
2019-06-01T05:18:31.571Z,17.28
2019-06-01T05:19:31.593Z,17.34
2019-06-01T05:20:31.614Z,17.34
2019-06-01T05:21:31.636Z,17.39
2019-06-01T05:22:31.660Z,17.44
2019-06-01T05:23:31.680Z,17.38
2019-06-01T05:24:31.704Z,17.41
2019-06-01T05:25:31.725Z,17.56
2019-06-01T05:26:31.748Z,17.57
2019-06-01T05:27:31.768Z,17.50
2019-06-01T05:28:31.791Z,17.60
2019-06-01T05:29:31.816Z,17.57
2019-06-01T05:30:31.841Z,17.60
2019-06-01T05:31:31.860Z,17.66
2019-06-01T05:32:31.880Z,17.63
2019-06-01T05:33:37.432Z,17.69
2019-06-01T05:34:31.990Z,17.69
2019-06-01T05:35:31.980Z,17.73
2019-06-01T05:36:32.060Z,17.78
2019-06-01T05:37:32.046Z,17.84
2019-06-01T05:38:32.039Z,17.80
2019-06-01T05:39:32.046Z,17.88
2019-06-01T05:40:32.062Z,17.91
2019-06-01T05:41:32.085Z,17.90
2019-06-01T05:42:32.105Z,17.87
2019-06-01T05:43:32.133Z,17.94
2019-06-01T05:44:32.151Z,18.03
2019-06-01T05:45:32.169Z,18.05
2019-06-01T05:46:32.195Z,17.98
2019-06-01T05:47:32.217Z,18.00
2019-06-01T05:48:32.237Z,18.02
2019-06-01T05:49:32.260Z,18.03
2019-06-01T05:50:32.285Z,18.13
2019-06-01T05:51:32.307Z,18.16
2019-06-01T05:52:32.328Z,18.13
2019-06-01T05:53:32.350Z,18.26
2019-06-01T05:54:32.374Z,18.16
2019-06-01T05:55:32.403Z,18.33
2019-06-01T05:56:32.422Z,18.28
2019-06-01T05:57:32.444Z,18.39
2019-06-01T05:58:32.467Z,18.42
2019-06-01T05:59:32.489Z,18.48
2019-06-01T06:00:32.511Z,18.52
2019-06-01T06:01:32.534Z,18.57
2019-06-01T06:02:32.560Z,18.49
2019-06-01T06:03:40.342Z,18.61
2019-06-01T06:04:32.600Z,18.64
2019-06-01T06:05:32.631Z,18.66
2019-06-01T06:06:32.649Z,18.61
2019-06-01T06:07:32.671Z,18.53
2019-06-01T06:08:32.695Z,18.66
2019-06-01T06:09:32.720Z,18.67
2019-06-01T06:10:32.742Z,18.66
2019-06-01T06:11:32.766Z,18.73
2019-06-01T06:12:32.789Z,18.82
2019-06-01T06:13:32.811Z,18.85
2019-06-01T06:14:32.834Z,18.82
2019-06-01T06:15:32.858Z,18.83
2019-06-01T06:16:32.880Z,18.91
2019-06-01T06:17:32.904Z,18.89
2019-06-01T06:18:32.932Z,18.96
2019-06-01T06:19:32.954Z,19.04
2019-06-01T06:20:32.980Z,18.96
2019-06-01T06:21:33.000Z,18.94
2019-06-01T06:22:33.025Z,19.00
2019-06-01T06:23:33.046Z,19.07
2019-06-01T06:24:33.075Z,19.11
2019-06-01T06:25:34.140Z,19.09
2019-06-01T06:26:33.115Z,18.98
2019-06-01T06:27:33.145Z,19.12
2019-06-01T06:28:33.161Z,19.05
2019-06-01T06:29:33.185Z,19.07
2019-06-01T06:30:33.211Z,19.11
2019-06-01T06:31:33.229Z,19.09
2019-06-01T06:32:33.260Z,19.16
2019-06-01T06:33:36.115Z,19.12
2019-06-01T06:34:33.303Z,19.12
2019-06-01T06:35:33.332Z,19.24
2019-06-01T06:36:33.350Z,19.19
2019-06-01T06:37:33.374Z,19.23
2019-06-01T06:38:33.395Z,19.37
2019-06-01T06:39:33.422Z,19.41
2019-06-01T06:40:33.445Z,19.45
2019-06-01T06:41:33.476Z,19.47
2019-06-01T06:42:33.497Z,19.55
2019-06-01T06:43:33.580Z,19.60
2019-06-01T06:44:33.536Z,19.71
2019-06-01T06:45:33.565Z,19.72
2019-06-01T06:46:33.595Z,19.75
2019-06-01T06:47:33.614Z,19.84
2019-06-01T06:48:33.634Z,19.92
2019-06-01T06:49:33.659Z,19.94
2019-06-01T06:50:33.687Z,19.99
2019-06-01T06:51:33.709Z,20.02
2019-06-01T06:52:33.733Z,20.04
2019-06-01T06:53:35.456Z,20.15
2019-06-01T06:54:33.787Z,20.21
2019-06-01T06:55:33.861Z,20.18
2019-06-01T06:56:33.878Z,20.29
2019-06-01T06:57:33.882Z,20.46
2019-06-01T06:58:33.958Z,20.70
2019-06-01T06:59:33.949Z,20.95
2019-06-01T07:00:33.944Z,21.00
2019-06-01T07:01:33.960Z,21.23
2019-06-01T07:02:33.985Z,21.26
2019-06-01T07:03:34.015Z,21.41
2019-06-01T07:04:34.041Z,21.53
2019-06-01T07:05:34.139Z,21.63
2019-06-01T07:06:34.106Z,21.88
2019-06-01T07:07:34.122Z,22.03
2019-06-01T07:08:34.146Z,22.10
2019-06-01T07:09:34.185Z,22.31
2019-06-01T07:10:34.228Z,22.31
2019-06-01T07:11:34.231Z,22.49
2019-06-01T07:12:34.259Z,22.56
2019-06-01T07:13:34.298Z,22.61
2019-06-01T07:14:34.331Z,22.59
2019-06-01T07:15:34.348Z,22.76
2019-06-01T07:16:34.390Z,22.78
2019-06-01T07:17:34.403Z,22.91
2019-06-01T07:18:34.435Z,23.10
2019-06-01T07:19:34.468Z,23.21
2019-06-01T07:20:34.488Z,23.23
2019-06-01T07:21:34.525Z,23.44
2019-06-01T07:22:34.556Z,23.44
2019-06-01T07:23:34.597Z,23.58
2019-06-01T07:24:34.614Z,23.67
2019-06-01T07:25:34.636Z,23.79
2019-06-01T07:26:34.673Z,23.86
2019-06-01T07:27:34.697Z,23.94
2019-06-01T07:28:34.753Z,24.07
2019-06-01T07:29:34.764Z,24.13
2019-06-01T07:30:49.842Z,24.07
2019-06-01T07:31:34.816Z,24.24
2019-06-01T07:32:34.851Z,24.21
2019-06-01T07:33:34.891Z,24.26
2019-06-01T07:34:41.933Z,24.38
2019-06-01T07:35:34.941Z,24.44
2019-06-01T07:36:34.971Z,24.55
2019-06-01T07:37:35.009Z,24.59
2019-06-01T07:38:35.035Z,24.62
2019-06-01T07:39:35.065Z,24.77
2019-06-01T07:40:35.096Z,24.81
2019-06-01T07:41:35.130Z,24.92
2019-06-01T07:42:35.163Z,24.84
2019-06-01T07:43:35.191Z,24.81
2019-06-01T07:44:35.222Z,24.74
2019-06-01T07:45:35.425Z,24.81
2019-06-01T07:46:35.284Z,24.79
2019-06-01T07:47:35.315Z,24.75
2019-06-01T07:48:35.345Z,24.68
2019-06-01T07:49:35.403Z,24.75
2019-06-01T07:50:35.405Z,24.61
2019-06-01T07:51:35.435Z,24.59
2019-06-01T07:52:35.467Z,24.71
2019-06-01T07:53:35.497Z,24.65
2019-06-01T07:54:35.526Z,24.65
2019-06-01T07:55:35.554Z,24.81
2019-06-01T07:56:35.588Z,24.82
2019-06-01T07:57:35.619Z,24.99
2019-06-01T07:58:35.649Z,25.18
2019-06-01T07:59:35.681Z,25.33
2019-06-01T08:00:35.750Z,25.29
2019-06-01T08:01:35.801Z,25.39
2019-06-01T08:02:35.811Z,25.46
2019-06-01T08:03:35.877Z,25.49
2019-06-01T08:04:52.434Z,25.55
2019-06-01T08:05:35.869Z,25.39
2019-06-01T08:06:35.900Z,25.44
2019-06-01T08:07:35.941Z,25.49
2019-06-01T08:08:35.967Z,25.52
2019-06-01T08:09:35.995Z,25.54
2019-06-01T08:10:36.032Z,25.62
2019-06-01T08:11:36.058Z,25.49
2019-06-01T08:12:36.127Z,25.52
2019-06-01T08:13:36.120Z,25.61
2019-06-01T08:14:36.153Z,25.59
2019-06-01T08:15:36.188Z,25.63
2019-06-01T08:16:36.222Z,25.56
2019-06-01T08:17:36.254Z,25.62
2019-06-01T08:18:36.282Z,25.66
2019-06-01T08:19:36.316Z,25.59
2019-06-01T08:20:36.350Z,25.70
2019-06-01T08:21:36.379Z,25.73
2019-06-01T08:22:36.413Z,25.77
2019-06-01T08:23:36.445Z,25.81
2019-06-01T08:24:36.477Z,25.95
2019-06-01T08:25:36.512Z,26.01
2019-06-01T08:26:36.545Z,26.07
2019-06-01T08:27:36.576Z,26.23
2019-06-01T08:28:36.610Z,26.18
2019-06-01T08:29:36.643Z,26.30
2019-06-01T08:30:36.676Z,26.41
2019-06-01T08:31:36.711Z,26.51
2019-06-01T08:32:36.744Z,26.53
2019-06-01T08:33:36.778Z,26.61
2019-06-01T08:34:36.812Z,26.67
2019-06-01T08:35:36.845Z,26.66
2019-06-01T08:36:36.887Z,26.70
2019-06-01T08:37:36.910Z,26.79
2019-06-01T08:38:36.945Z,26.85
2019-06-01T08:39:36.983Z,26.85
2019-06-01T08:40:37.012Z,26.83
2019-06-01T08:41:37.045Z,26.97
2019-06-01T08:42:37.079Z,26.97
2019-06-01T08:43:37.115Z,26.96
2019-06-01T08:44:37.146Z,26.97
2019-06-01T08:45:37.481Z,26.86
2019-06-01T08:46:37.217Z,26.88
2019-06-01T08:47:37.245Z,26.89
2019-06-01T08:48:37.279Z,27.01
2019-06-01T08:49:37.315Z,27.03
2019-06-01T08:50:37.347Z,27.00
2019-06-01T08:51:37.380Z,26.93
2019-06-01T08:52:37.415Z,27.01
2019-06-01T08:53:37.450Z,27.11
2019-06-01T08:54:37.482Z,27.01
2019-06-01T08:55:37.518Z,27.04
2019-06-01T08:56:37.550Z,27.18
2019-06-01T08:57:37.588Z,27.20
2019-06-01T08:58:37.622Z,27.28
2019-06-01T08:59:37.726Z,27.25
2019-06-01T09:00:37.754Z,27.30
2019-06-01T09:01:37.808Z,27.35
2019-06-01T09:02:37.789Z,27.35
2019-06-01T09:03:45.528Z,27.41
2019-06-01T09:04:37.827Z,27.41
2019-06-01T09:05:37.860Z,27.47
2019-06-01T09:06:37.898Z,27.45
2019-06-01T09:07:37.960Z,27.38
2019-06-01T09:08:37.964Z,27.38
2019-06-01T09:09:38.001Z,27.40
2019-06-01T09:10:38.034Z,27.38
2019-06-01T09:11:38.067Z,27.35
2019-06-01T09:12:38.103Z,27.52
2019-06-01T09:13:38.135Z,27.55
2019-06-01T09:14:38.172Z,27.50
2019-06-01T09:15:38.204Z,27.47
2019-06-01T09:16:38.240Z,27.48
2019-06-01T09:17:38.274Z,27.60
2019-06-01T09:18:38.312Z,27.66
2019-06-01T09:19:38.343Z,27.73
2019-06-01T09:20:39.015Z,27.79
2019-06-01T09:21:38.414Z,27.90
2019-06-01T09:22:38.453Z,27.86
2019-06-01T09:23:38.490Z,27.90
2019-06-01T09:24:38.523Z,28.00
2019-06-01T09:25:38.555Z,28.08
2019-06-01T09:26:38.591Z,28.06
2019-06-01T09:27:38.626Z,28.09
2019-06-01T09:28:38.667Z,28.15
2019-06-01T09:29:38.700Z,28.19
2019-06-01T09:30:38.730Z,28.34
2019-06-01T09:31:38.770Z,28.50
2019-06-01T09:32:38.805Z,28.53
2019-06-01T09:33:38.843Z,28.56
2019-06-01T09:34:38.891Z,28.55
2019-06-01T09:35:52.534Z,28.56
2019-06-01T09:36:38.949Z,28.65
2019-06-01T09:37:38.985Z,28.80
2019-06-01T09:38:39.021Z,28.72
2019-06-01T09:39:39.083Z,28.78
2019-06-01T09:40:39.095Z,28.70
2019-06-01T09:41:39.129Z,28.92
2019-06-01T09:42:39.179Z,29.00
2019-06-01T09:43:39.205Z,29.02
2019-06-01T09:44:39.241Z,29.13
2019-06-01T09:45:39.278Z,29.15
2019-06-01T09:46:39.315Z,29.21
2019-06-01T09:47:39.352Z,29.21
2019-06-01T09:48:39.387Z,29.22
2019-06-01T09:49:39.422Z,29.16
2019-06-01T09:50:39.458Z,29.20
2019-06-01T09:51:39.493Z,29.05
2019-06-01T09:52:39.530Z,29.02
2019-06-01T09:53:39.586Z,28.97
2019-06-01T09:54:39.664Z,28.94
2019-06-01T09:55:39.670Z,28.97
2019-06-01T09:56:39.986Z,28.83
2019-06-01T09:57:39.728Z,28.83
2019-06-01T09:58:39.746Z,28.72
2019-06-01T09:59:39.772Z,28.77
2019-06-01T10:00:43.478Z,28.77
2019-06-01T10:01:39.843Z,28.74
2019-06-01T10:02:39.878Z,28.84
2019-06-01T10:03:39.912Z,28.82
2019-06-01T10:04:39.947Z,28.86
2019-06-01T10:05:39.982Z,28.93
2019-06-01T10:06:40.017Z,29.02
2019-06-01T10:07:41.389Z,29.06
2019-06-01T10:08:40.091Z,29.15
2019-06-01T10:09:40.143Z,29.28
2019-06-01T10:10:40.158Z,29.32
2019-06-01T10:11:40.192Z,29.47
2019-06-01T10:12:40.230Z,29.65
2019-06-01T10:13:40.267Z,29.76
2019-06-01T10:14:40.306Z,29.81
2019-06-01T10:15:40.337Z,30.03
2019-06-01T10:16:40.376Z,30.03
2019-06-01T10:17:40.411Z,30.14
2019-06-01T10:18:40.449Z,30.23
2019-06-01T10:19:40.485Z,30.18
2019-06-01T10:20:41.355Z,30.31
2019-06-01T10:21:40.561Z,30.40
2019-06-01T10:22:41.562Z,30.46
2019-06-01T10:23:40.634Z,30.54
2019-06-01T10:24:41.406Z,30.70
2019-06-01T10:25:40.707Z,30.77
2019-06-01T10:26:41.885Z,30.91
2019-06-01T10:27:40.781Z,31.08
2019-06-01T10:28:41.912Z,31.10
2019-06-01T10:29:40.860Z,31.36
2019-06-01T10:30:42.042Z,31.52
2019-06-01T10:31:41.633Z,31.62
2019-06-01T10:32:42.005Z,31.72
2019-06-01T10:33:41.010Z,31.90
2019-06-01T10:34:41.814Z,31.93
2019-06-01T10:35:41.090Z,32.00
2019-06-01T10:36:42.129Z,32.17
2019-06-01T10:37:41.738Z,32.39
2019-06-01T10:38:41.489Z,32.38
2019-06-01T10:39:41.398Z,32.26
2019-06-01T10:40:41.787Z,32.19
2019-06-01T10:41:41.538Z,32.20
2019-06-01T10:42:41.907Z,32.23
2019-06-01T10:43:41.766Z,32.34
2019-06-01T10:44:45.226Z,32.38
2019-06-01T10:45:41.958Z,32.46
2019-06-01T10:46:42.183Z,32.60
2019-06-01T10:47:42.283Z,32.73
2019-06-01T10:48:42.197Z,32.71
2019-06-01T10:49:42.189Z,32.81
2019-06-01T10:50:42.628Z,32.94
2019-06-01T10:51:42.356Z,33.08
2019-06-01T10:52:42.589Z,33.26
2019-06-01T10:53:43.640Z,33.39
2019-06-01T10:54:42.491Z,33.51
2019-06-01T10:55:42.507Z,33.67
2019-06-01T10:56:42.561Z,33.75
2019-06-01T10:57:42.801Z,33.76
2019-06-01T10:58:56.781Z,33.85
2019-06-01T10:59:42.612Z,33.91
2019-06-01T11:00:47.783Z,33.92
2019-06-01T11:01:42.724Z,34.11
2019-06-01T11:02:43.131Z,34.09
2019-06-01T11:03:42.851Z,34.21
2019-06-01T11:04:43.416Z,34.11
2019-06-01T11:05:42.945Z,34.24
2019-06-01T11:06:46.658Z,34.43
2019-06-01T11:07:43.102Z,34.44
2019-06-01T11:08:43.198Z,34.48
2019-06-01T11:09:43.247Z,34.41
2019-06-01T11:10:43.219Z,34.35
2019-06-01T11:11:43.188Z,34.56
2019-06-01T11:12:43.226Z,34.62
2019-06-01T11:13:43.251Z,34.65
2019-06-01T11:14:43.343Z,34.76
2019-06-01T11:15:43.308Z,34.94
2019-06-01T11:16:43.719Z,34.98
2019-06-01T11:17:43.253Z,35.00
2019-06-01T11:18:43.586Z,35.16
2019-06-01T11:19:43.740Z,35.18
2019-06-01T11:20:43.569Z,35.04
2019-06-01T11:21:43.781Z,35.07
2019-06-01T11:22:43.712Z,34.98
2019-06-01T11:23:46.138Z,34.81
2019-06-01T11:24:43.969Z,35.04
2019-06-01T11:25:43.734Z,35.04
2019-06-01T11:26:43.872Z,35.05
2019-06-01T11:27:44.041Z,35.03
2019-06-01T11:28:44.370Z,35.13
2019-06-01T11:29:49.914Z,35.30
2019-06-01T11:30:43.982Z,35.59
2019-06-01T11:31:44.240Z,35.75
2019-06-01T11:32:43.695Z,35.87
2019-06-01T11:33:44.302Z,36.00
2019-06-01T11:34:44.477Z,35.97
2019-06-01T11:35:43.508Z,36.05
2019-06-01T11:37:03.224Z,35.90
2019-06-01T11:37:44.426Z,35.96
2019-06-01T11:38:44.664Z,36.11
2019-06-01T11:39:44.695Z,36.03
2019-06-01T11:40:44.714Z,36.11
2019-06-01T11:41:44.673Z,36.06
2019-06-01T11:42:44.942Z,36.01
2019-06-01T11:43:45.856Z,35.93
2019-06-01T11:44:44.812Z,35.91
2019-06-01T11:45:45.112Z,35.91
2019-06-01T11:46:45.000Z,36.00
2019-06-01T11:47:44.838Z,35.97
2019-06-01T11:48:45.243Z,36.26
2019-06-01T11:49:44.951Z,36.35
2019-06-01T11:50:45.248Z,36.44
2019-06-01T11:51:45.173Z,36.50
2019-06-01T11:52:45.317Z,36.59
2019-06-01T11:53:45.246Z,36.55
2019-06-01T11:54:45.326Z,36.73
2019-06-01T11:55:45.451Z,36.76
2019-06-01T11:56:45.415Z,36.76
2019-06-01T11:57:44.322Z,36.96
2019-06-01T11:58:45.498Z,36.89
2019-06-01T11:59:45.587Z,37.00
2019-06-01T12:00:45.792Z,37.16
2019-06-01T12:01:45.855Z,37.37
2019-06-01T12:02:45.826Z,37.33
2019-06-01T12:03:44.553Z,37.45
2019-06-01T12:04:44.598Z,37.64
2019-06-01T12:05:45.988Z,37.64
2019-06-01T12:06:46.177Z,37.63
2019-06-01T12:07:45.962Z,37.58
2019-06-01T12:08:46.183Z,37.60
2019-06-01T12:09:45.964Z,37.43
2019-06-01T12:10:45.289Z,37.68
2019-06-01T12:11:46.238Z,37.61
2019-06-01T12:12:46.322Z,37.73
2019-06-01T12:13:44.964Z,37.90
2019-06-01T12:14:45.012Z,37.86
2019-06-01T12:15:45.073Z,38.12
2019-06-01T12:16:45.100Z,38.19
2019-06-01T12:17:45.127Z,38.34
2019-06-01T12:18:45.169Z,38.42
2019-06-01T12:19:45.209Z,38.47
2019-06-01T12:20:45.251Z,38.42
2019-06-01T12:21:45.357Z,38.54
2019-06-01T12:22:45.335Z,38.63
2019-06-01T12:23:45.642Z,38.69
2019-06-01T12:24:45.495Z,38.81
2019-06-01T12:25:46.277Z,38.81
2019-06-01T12:26:45.623Z,38.77
2019-06-01T12:27:46.074Z,38.75
2019-06-01T12:28:45.863Z,38.65
2019-06-01T12:29:45.843Z,38.60
2019-06-01T12:30:45.917Z,38.72
2019-06-01T12:31:46.555Z,38.82
2019-06-01T12:32:46.071Z,38.75
2019-06-01T12:33:46.382Z,38.87
2019-06-01T12:34:46.264Z,38.90
2019-06-01T12:35:46.144Z,38.68
2019-06-01T12:36:46.393Z,38.90
2019-06-01T12:38:04.845Z,39.07
2019-06-01T12:38:46.455Z,39.10
2019-06-01T12:39:50.389Z,39.17
2019-06-01T12:40:46.081Z,39.20
2019-06-01T12:41:46.130Z,39.19
2019-06-01T12:42:46.176Z,39.11
2019-06-01T12:43:46.208Z,39.14
2019-06-01T12:44:46.248Z,39.11
2019-06-01T12:45:46.291Z,39.07
2019-06-01T12:46:46.957Z,39.05
2019-06-01T12:47:52.298Z,39.04
2019-06-01T12:48:46.414Z,39.04
2019-06-01T12:49:46.463Z,39.12
2019-06-01T12:50:49.317Z,39.14
2019-06-01T12:51:46.925Z,39.37
2019-06-01T12:52:46.583Z,39.11